Time;durP1;ratioP1;P1;durP2;ratioP2;P2;SDS_P1;SDS_P2;PMS_P1;PMS_P2;Temp;Humidity;BMP_temperature;BMP_pressure;BME280_temperature;BME280_humidity;BME280_pressure;Samples;Min_cycle;Max_cycle;Signal;HPM_P1;HPM_P2
2022/10/18 00:00:29;;;;;;;13.45;7.32;;;;;;;;;;5064066;28;20266;-77
2022/10/18 00:02:56;;;;;;;11.27;6.97;;;;;;;;;;5073692;28;20049;-77
2022/10/18 00:05:22;;;;;;;11.57;7.18;;;;;;;;;;5073689;28;20056;-78
2022/10/18 00:07:48;;;;;;;13.45;7.45;;;;;;;;;;5072558;28;20040;-78
2022/10/18 00:10:15;;;;;;;12.65;7.38;;;;;;;;;;5054554;28;20063;-77
2022/10/18 00:12:41;;;;;;;16.80;7.45;;;;;;;;;;5073723;28;20051;-79
2022/10/18 00:15:09;;;;;;;19.17;8.50;;;;;;;;;;5072883;28;20048;-78
2022/10/18 00:17:36;;;;;;;13.35;7.82;;;;;;;;;;5055271;28;20044;-77
2022/10/18 00:20:03;;;;;;;15.00;7.53;;;;;;;;;;5072977;28;20063;-79
2022/10/18 00:22:33;;;;;;;13.35;7.88;;;;;;;;;;5071548;28;20528;-80
2022/10/18 00:24:59;;;;;;;16.70;7.68;;;;;;;;;;5071517;28;20052;-78
2022/10/18 00:27:27;;;;;;;21.67;8.07;;;;;;;;;;5070877;28;20044;-79
2022/10/18 00:29:54;;;;;;;15.48;8.27;;;;;;;;;;5072479;28;20666;-79
2022/10/18 00:32:20;;;;;;;15.55;7.65;;;;;;;;;;5055419;28;20080;-79
2022/10/18 00:34:47;;;;;;;14.80;7.85;;;;;;;;;;5058390;28;20048;-79
2022/10/18 00:37:13;;;;;;;14.15;7.57;;;;;;;;;;5058964;28;20049;-79
2022/10/18 00:39:40;;;;;;;12.73;7.32;;;;;;;;;;5078587;28;20158;-78
2022/10/18 00:42:06;;;;;;;15.85;7.53;;;;;;;;;;5078506;28;20041;-78
2022/10/18 00:44:33;;;;;;;15.45;7.95;;;;;;;;;;5077977;28;20109;-76
2022/10/18 00:47:03;;;;;;;18.98;8.43;;;;;;;;;;5079797;28;20044;-78
2022/10/18 00:49:34;;;;;;;16.58;9.02;;;;;;;;;;5079038;28;20131;-78
2022/10/18 00:52:06;;;;;;;14.02;7.88;;;;;;;;;;5080265;28;20051;-78
2022/10/18 00:54:34;;;;;;;20.35;8.07;;;;;;;;;;5085937;28;20175;-78
2022/10/18 00:57:01;;;;;;;18.50;8.73;;;;;;;;;;5089903;28;20044;-77
2022/10/18 00:59:28;;;;;;;16.73;8.40;;;;;;;;;;5087805;28;20040;-79
2022/10/18 01:01:54;;;;;;;13.88;7.88;;;;;;;;;;5068291;28;20059;-78
2022/10/18 01:04:21;;;;;;;14.40;8.65;;;;;;;;;;5071417;28;20048;-79
2022/10/18 01:07:00;;;;;;;16.25;8.18;;;;;;;;;;5071758;28;20086;-78
2022/10/18 01:09:32;;;;;;;17.10;8.15;;;;;;;;;;5071725;28;20052;-78
2022/10/18 01:12:20;;;;;;;13.38;8.38;;;;;;;;;;5071645;28;20058;-79
2022/10/18 01:14:53;;;;;;;16.38;7.55;;;;;;;;;;5071635;28;20049;-78
2022/10/18 01:17:39;;;;;;;16.52;8.25;;;;;;;;;;5071385;28;20122;-80
2022/10/18 01:20:09;;;;;;;13.23;7.78;;;;;;;;;;5072703;28;20059;-79
2022/10/18 01:22:37;;;;;;;16.70;8.52;;;;;;;;;;5074767;28;20059;-80
2022/10/18 01:25:13;;;;;;;14.80;8.02;;;;;;;;;;5073660;28;20058;-80
2022/10/18 01:27:39;;;;;;;;;;;;;;;;;;5075126;28;20052;-79
2022/10/18 01:30:06;;;;;;;;;;;;;;;;;;5075741;28;19996;-79
2022/10/18 01:32:32;;;;;;;;;;;;;;;;;;5075531;28;19927;-79
2022/10/18 01:34:58;;;;;;;;;;;;;;;;;;5075145;28;19920;-79
2022/10/18 01:37:25;;;;;;;18.00;7.82;;;;;;;;;;5074189;28;19920;-79
2022/10/18 01:39:54;;;;;;;17.98;9.00;;;;;;;;;;5075053;28;20068;-79
2022/10/18 01:42:20;;;;;;;18.27;8.80;;;;;;;;;;5078395;28;20049;-79
2022/10/18 01:44:48;;;;;;;21.63;8.60;;;;;;;;;;5071915;28;20052;-78
2022/10/18 01:47:15;;;;;;;22.23;9.07;;;;;;;;;;5073619;28;20051;-78
2022/10/18 01:49:41;;;;;;;19.80;10.00;;;;;;;;;;5071033;28;20045;-78
2022/10/18 01:52:12;;;;;;;21.38;9.75;;;;;;;;;;5069989;28;20045;-79
2022/10/18 01:54:41;;;;;;;20.27;10.55;;;;;;;;;;5070428;28;20147;-79
2022/10/18 01:57:16;;;;;;;26.55;10.32;;;;;;;;;;5069977;28;20136;-78
2022/10/18 01:59:55;;;;;;;18.52;9.35;;;;;;;;;;5069991;28;20152;-79
2022/10/18 02:02:40;;;;;;;18.00;8.95;;;;;;;;;;5060834;28;20267;-79
2022/10/18 02:05:25;;;;;;;20.87;10.27;;;;;;;;;;5071539;28;20048;-79
2022/10/18 02:07:55;;;;;;;15.80;8.85;;;;;;;;;;5071921;28;20139;-77
2022/10/18 02:11:05;;;;;;;21.58;9.15;;;;;;;;;;5092860;28;20062;-77
2022/10/18 02:13:34;;;;;;;21.02;9.68;;;;;;;;;;5085286;28;20099;-77
2022/10/18 02:16:03;;;;;;;19.35;9.55;;;;;;;;;;5074581;28;20052;-78
2022/10/18 02:18:35;;;;;;;20.55;10.38;;;;;;;;;;5070778;28;20071;-77
2022/10/18 02:21:02;;;;;;;18.52;10.50;;;;;;;;;;5051388;28;20436;-77
2022/10/18 02:23:30;;;;;;;20.95;10.80;;;;;;;;;;5051023;28;20084;-78
2022/10/18 02:25:56;;;;;;;19.73;9.65;;;;;;;;;;5051445;28;20515;-78
2022/10/18 02:28:23;;;;;;;20.55;9.85;;;;;;;;;;5053023;28;20116;-78
2022/10/18 02:31:08;;;;;;;14.77;8.40;;;;;;;;;;5075459;28;20059;-78
2022/10/18 02:33:38;;;;;;;16.15;8.38;;;;;;;;;;5053283;28;20053;-78
2022/10/18 02:36:11;;;;;;;19.67;8.20;;;;;;;;;;5075182;28;20052;-79
2022/10/18 02:38:40;;;;;;;14.38;8.27;;;;;;;;;;5054282;28;20071;-79
2022/10/18 02:41:06;;;;;;;20.05;8.20;;;;;;;;;;5073817;28;20049;-78
2022/10/18 02:43:34;;;;;;;17.55;8.70;;;;;;;;;;5072931;28;20053;-78
2022/10/18 02:46:00;;;;;;;17.02;8.65;;;;;;;;;;5072745;28;20062;-79
2022/10/18 02:48:27;;;;;;;16.48;9.18;;;;;;;;;;5072425;28;20048;-78
2022/10/18 02:50:53;;;;;;;15.60;8.15;;;;;;;;;;5071727;28;20071;-78
2022/10/18 02:53:19;;;;;;;18.50;8.93;;;;;;;;;;5075998;28;20700;-79
2022/10/18 02:55:46;;;;;;;17.30;8.68;;;;;;;;;;5058717;28;20048;-80
2022/10/18 02:58:13;;;;;;;14.98;8.52;;;;;;;;;;5076134;28;20048;-80
2022/10/18 03:00:39;;;;;;;15.55;8.27;;;;;;;;;;5075265;28;20052;-78
2022/10/18 03:03:06;;;;;;;18.33;8.90;;;;;;;;;;5075874;28;20053;-78
2022/10/18 03:05:33;;;;;;;13.70;7.88;;;;;;;;;;5075651;28;20520;-77
2022/10/18 03:08:00;;;;;;;17.42;8.55;;;;;;;;;;5075319;28;20045;-78
2022/10/18 03:10:26;;;;;;;17.45;8.18;;;;;;;;;;5077159;28;20045;-79
2022/10/18 03:12:52;;;;;;;18.17;8.20;;;;;;;;;;5076554;28;20051;-77
2022/10/18 03:15:19;;;;;;;17.98;8.70;;;;;;;;;;5072251;28;20045;-79
2022/10/18 03:17:45;;;;;;;20.30;8.35;;;;;;;;;;5077055;28;20052;-80
2022/10/18 03:20:12;;;;;;;15.95;8.25;;;;;;;;;;5075765;28;20068;-78
2022/10/18 03:22:39;;;;;;;18.92;8.93;;;;;;;;;;5076777;28;20079;-78
2022/10/18 03:25:06;;;;;;;15.27;8.55;;;;;;;;;;5075391;28;20138;-78
2022/10/18 03:27:32;;;;;;;17.77;8.13;;;;;;;;;;5075135;28;20044;-78
2022/10/18 03:29:59;;;;;;;16.67;8.38;;;;;;;;;;5074105;28;20045;-78
2022/10/18 03:32:26;;;;;;;15.57;8.18;;;;;;;;;;5073224;28;20052;-79
2022/10/18 03:34:52;;;;;;;21.02;8.85;;;;;;;;;;5074747;28;20048;-79
2022/10/18 03:37:19;;;;;;;15.60;7.72;;;;;;;;;;5074153;28;20154;-79
2022/10/18 03:39:45;;;;;;;14.75;8.55;;;;;;;;;;5075710;28;20049;-78
2022/10/18 03:42:11;;;;;;;13.85;7.60;;;;;;;;;;5075114;28;20143;-79
2022/10/18 03:44:38;;;;;;;15.82;8.10;;;;;;;;;;5073876;28;20387;-79
2022/10/18 03:47:04;;;;;;;14.55;7.53;;;;;;;;;;5074075;28;20050;-79
2022/10/18 03:49:30;;;;;;;12.60;7.63;;;;;;;;;;5073943;28;20045;-79
2022/10/18 03:52:02;;;;;;;18.50;8.70;;;;;;;;;;5055384;28;20504;-78
2022/10/18 03:54:28;;;;;;;15.88;7.88;;;;;;;;;;5056242;28;20055;-79
2022/10/18 03:56:55;;;;;;;14.90;8.45;;;;;;;;;;5073682;28;20067;-79
2022/10/18 03:59:21;;;;;;;14.55;7.30;;;;;;;;;;5074694;28;20044;-78
2022/10/18 04:01:48;;;;;;;16.20;7.85;;;;;;;;;;5073755;28;20048;-78
2022/10/18 04:04:15;;;;;;;14.88;7.90;;;;;;;;;;5073206;28;20052;-77
2022/10/18 04:06:41;;;;;;;14.15;7.35;;;;;;;;;;5072388;28;20075;-78
2022/10/18 04:09:08;;;;;;;14.93;7.38;;;;;;;;;;5073547;28;20044;-78
2022/10/18 04:11:35;;;;;;;11.93;7.47;;;;;;;;;;5072878;28;20063;-78
2022/10/18 04:14:02;;;;;;;12.68;7.20;;;;;;;;;;5076166;28;20059;-78
2022/10/18 04:16:28;;;;;;;10.20;7.00;;;;;;;;;;5072449;28;20041;-78
2022/10/18 04:18:56;;;;;;;14.30;7.85;;;;;;;;;;5073068;28;20512;-79
2022/10/18 04:21:22;;;;;;;16.25;8.25;;;;;;;;;;5086232;28;20045;-79
2022/10/18 04:23:49;;;;;;;15.95;8.95;;;;;;;;;;5091273;28;20100;-78
2022/10/18 04:26:16;;;;;;;14.23;8.65;;;;;;;;;;5086395;28;20045;-78
2022/10/18 04:28:42;;;;;;;15.68;8.23;;;;;;;;;;5081332;28;20055;-78
2022/10/18 04:31:09;;;;;;;17.95;9.65;;;;;;;;;;5084488;28;20041;-77
2022/10/18 04:33:35;;;;;;;17.20;9.40;;;;;;;;;;5068074;28;20053;-78
2022/10/18 04:36:02;;;;;;;14.18;8.98;;;;;;;;;;5088205;28;20036;-78
2022/10/18 04:38:28;;;;;;;16.80;8.55;;;;;;;;;;5077504;28;20507;-78
2022/10/18 04:40:54;;;;;;;18.75;8.45;;;;;;;;;;5073571;28;20056;-78
2022/10/18 04:43:21;;;;;;;14.35;8.75;;;;;;;;;;5073833;28;20136;-78
2022/10/18 04:45:49;;;;;;;16.60;9.27;;;;;;;;;;5072945;28;20053;-78
2022/10/18 04:48:16;;;;;;;15.10;8.00;;;;;;;;;;5073253;28;20166;-78
2022/10/18 04:50:43;;;;;;;14.82;8.13;;;;;;;;;;5073677;28;20066;-78
2022/10/18 04:53:09;;;;;;;17.63;8.23;;;;;;;;;;5057125;28;20060;-78
2022/10/18 04:55:36;;;;;;;16.05;8.45;;;;;;;;;;5072535;28;20045;-78
2022/10/18 04:58:02;;;;;;;16.70;9.27;;;;;;;;;;5070784;28;20251;-78
2022/10/18 05:00:29;;;;;;;17.05;8.85;;;;;;;;;;5072317;28;20505;-78
2022/10/18 05:02:58;;;;;;;16.80;8.27;;;;;;;;;;5072516;28;20055;-79
2022/10/18 05:05:24;;;;;;;18.75;9.40;;;;;;;;;;5071983;28;20053;-79
2022/10/18 05:08:11;;;;;;;16.02;8.45;;;;;;;;;;5072183;28;20071;-79
2022/10/18 05:10:37;;;;;;;19.70;9.02;;;;;;;;;;5072576;28;20053;-79
2022/10/18 05:13:04;;;;;;;19.23;9.43;;;;;;;;;;5072803;28;20040;-79
2022/10/18 05:15:30;;;;;;;14.50;8.60;;;;;;;;;;5050211;28;20053;-78
2022/10/18 05:17:56;;;;;;;16.60;9.55;;;;;;;;;;5070359;28;20056;-79
2022/10/18 05:20:23;;;;;;;18.77;9.27;;;;;;;;;;5050084;28;20048;-77
2022/10/18 05:22:49;;;;;;;14.30;8.45;;;;;;;;;;5071341;28;20048;-77
2022/10/18 05:25:16;;;;;;;14.88;8.10;;;;;;;;;;5072739;28;20520;-79
2022/10/18 05:27:42;;;;;;;17.33;8.68;;;;;;;;;;5058172;28;20047;-81
2022/10/18 05:30:09;;;;;;;18.63;9.02;;;;;;;;;;5084163;28;20055;-78
2022/10/18 05:32:36;;;;;;;18.65;9.38;;;;;;;;;;5078233;28;20063;-77
2022/10/18 05:35:02;;;;;;;16.98;8.98;;;;;;;;;;5095925;28;20103;-78
2022/10/18 05:37:29;;;;;;;16.08;8.60;;;;;;;;;;5072360;28;20055;-78
2022/10/18 05:39:55;;;;;;;19.45;8.73;;;;;;;;;;5070759;28;20048;-77
2022/10/18 05:42:22;;;;;;;19.10;9.63;;;;;;;;;;5071809;28;20050;-78
2022/10/18 05:44:48;;;;;;;22.05;9.38;;;;;;;;;;5082744;28;20037;-78
2022/10/18 05:47:17;;;;;;;23.67;8.75;;;;;;;;;;5087111;28;20052;-78
2022/10/18 05:49:43;;;;;;;16.58;8.93;;;;;;;;;;5074156;28;20048;-78
2022/10/18 05:52:10;;;;;;;15.70;8.43;;;;;;;;;;5070430;28;20062;-78
2022/10/18 05:54:36;;;;;;;16.88;8.90;;;;;;;;;;5070750;28;20507;-80
2022/10/18 05:57:02;;;;;;;25.35;9.70;;;;;;;;;;5072164;28;20581;-79
2022/10/18 05:59:29;;;;;;;21.17;9.82;;;;;;;;;;5071395;28;20527;-78
2022/10/18 06:01:55;;;;;;;14.48;8.95;;;;;;;;;;5073662;28;20144;-79
2022/10/18 06:04:22;;;;;;;15.82;8.70;;;;;;;;;;5071431;28;20051;-79
2022/10/18 06:06:48;;;;;;;19.08;9.27;;;;;;;;;;5069876;28;20054;-78
2022/10/18 06:09:15;;;;;;;18.27;9.20;;;;;;;;;;5052960;28;20041;-79
2022/10/18 06:11:41;;;;;;;19.48;9.07;;;;;;;;;;5072050;28;20051;-79
2022/10/18 06:14:08;;;;;;;16.15;8.93;;;;;;;;;;5073204;28;20048;-80
2022/10/18 06:16:35;;;;;;;19.88;9.45;;;;;;;;;;5074305;28;20060;-79
2022/10/18 06:19:02;;;;;;;18.92;9.02;;;;;;;;;;5074105;28;20132;-79
2022/10/18 06:21:28;;;;;;;14.90;8.05;;;;;;;;;;5077385;28;20045;-78
2022/10/18 06:23:56;;;;;;;20.27;9.15;;;;;;;;;;5073743;28;20056;-78
2022/10/18 06:26:23;;;;;;;18.30;9.55;;;;;;;;;;5072576;28;20049;-78
2022/10/18 06:28:50;;;;;;;19.38;9.05;;;;;;;;;;5056113;28;20055;-80
2022/10/18 06:31:17;;;;;;;18.80;8.95;;;;;;;;;;5054908;28;20044;-80
2022/10/18 06:33:44;;;;;;;13.40;8.13;;;;;;;;;;5074013;28;20163;-78
2022/10/18 06:36:13;;;;;;;18.35;9.07;;;;;;;;;;5073652;28;20465;-79
2022/10/18 06:38:40;;;;;;;15.57;8.13;;;;;;;;;;5068876;28;20052;-78
2022/10/18 06:41:07;;;;;;;15.68;8.88;;;;;;;;;;5070226;28;20049;-80
2022/10/18 06:43:34;;;;;;;13.95;9.07;;;;;;;;;;5071131;28;20070;-78
2022/10/18 06:46:03;;;;;;;19.02;8.73;;;;;;;;;;5070178;28;20048;-80
2022/10/18 06:48:30;;;;;;;19.48;10.05;;;;;;;;;;5071229;28;20068;-79
2022/10/18 06:50:58;;;;;;;17.95;9.57;;;;;;;;;;5069819;28;20052;-80
2022/10/18 06:53:25;;;;;;;16.00;9.07;;;;;;;;;;5071144;28;20044;-79
2022/10/18 06:55:52;;;;;;;18.13;9.43;;;;;;;;;;5069124;28;20209;-76
2022/10/18 06:58:18;;;;;;;15.50;9.82;;;;;;;;;;5053378;28;20104;-79
2022/10/18 07:00:45;;;;;;;20.63;9.25;;;;;;;;;;5071347;28;20052;-79
2022/10/18 07:03:12;;;;;;;18.83;9.35;;;;;;;;;;5070746;28;20048;-76
2022/10/18 07:05:38;;;;;;;17.98;10.07;;;;;;;;;;5072451;28;20108;-78
2022/10/18 07:08:05;;;;;;;16.30;9.80;;;;;;;;;;5075349;28;20464;-79
2022/10/18 07:10:31;;;;;;;26.17;10.40;;;;;;;;;;5070117;28;20060;-79
2022/10/18 07:12:57;;;;;;;18.70;10.45;;;;;;;;;;5070447;28;20618;-79
2022/10/18 07:15:44;;;;;;;20.40;10.73;;;;;;;;;;5069769;28;20048;-79
2022/10/18 07:18:10;;;;;;;19.80;9.43;;;;;;;;;;5068701;28;20531;-80
2022/10/18 07:20:37;;;;;;;25.05;11.43;;;;;;;;;;5068997;28;20054;-78
2022/10/18 07:23:05;;;;;;;19.88;10.45;;;;;;;;;;5070346;28;20040;-79
2022/10/18 07:25:32;;;;;;;22.98;10.10;;;;;;;;;;5069517;28;20055;-80
2022/10/18 07:27:58;;;;;;;22.08;11.00;;;;;;;;;;5070424;28;20036;-80
2022/10/18 07:30:25;;;;;;;18.55;9.93;;;;;;;;;;5069296;28;20049;-80
2022/10/18 07:32:51;;;;;;;21.25;10.65;;;;;;;;;;5069080;28;20153;-79
2022/10/18 07:35:17;;;;;;;18.70;10.50;;;;;;;;;;5069269;28;20059;-80
2022/10/18 07:37:44;;;;;;;17.75;9.93;;;;;;;;;;5071499;28;20087;-79
2022/10/18 07:40:11;;;;;;;19.85;10.65;;;;;;;;;;5071713;28;20086;-79
2022/10/18 07:42:37;;;;;;;25.40;10.32;;;;;;;;;;5073973;28;20567;-80
2022/10/18 07:45:03;;;;;;;23.63;11.63;;;;;;;;;;5073420;28;20051;-79
2022/10/18 07:47:30;;;;;;;22.80;11.68;;;;;;;;;;5072709;28;20083;-80
2022/10/18 07:50:00;;;;;;;23.60;10.98;;;;;;;;;;5071608;28;20036;-80
2022/10/18 07:52:27;;;;;;;22.85;10.70;;;;;;;;;;5072909;28;20056;-79
2022/10/18 07:54:53;;;;;;;22.45;11.15;;;;;;;;;;5055948;28;20060;-80
2022/10/18 07:57:19;;;;;;;22.27;11.60;;;;;;;;;;5072593;28;20041;-78
2022/10/18 07:59:47;;;;;;;18.83;10.00;;;;;;;;;;5072697;28;20052;-80
2022/10/18 08:02:13;;;;;;;20.90;9.98;;;;;;;;;;5073948;28;20048;-79
2022/10/18 08:04:40;;;;;;;19.63;9.73;;;;;;;;;;5074552;28;20061;-79
2022/10/18 08:07:06;;;;;;;19.50;9.40;;;;;;;;;;5074669;28;20045;-80
2022/10/18 08:09:33;;;;;;;19.85;9.55;;;;;;;;;;5074210;28;20530;-78
2022/10/18 08:11:59;;;;;;;16.50;9.70;;;;;;;;;;5074596;28;20501;-80
2022/10/18 08:14:26;;;;;;;17.85;8.95;;;;;;;;;;5073217;28;20051;-78
2022/10/18 08:16:52;;;;;;;17.20;9.02;;;;;;;;;;5074665;28;20194;-79
2022/10/18 08:19:18;;;;;;;19.10;9.70;;;;;;;;;;5071379;28;20044;-80
2022/10/18 08:21:45;;;;;;;17.65;8.77;;;;;;;;;;5073108;28;20044;-79
2022/10/18 08:24:11;;;;;;;19.85;9.68;;;;;;;;;;5070445;28;20127;-79
2022/10/18 08:26:38;;;;;;;17.20;8.60;;;;;;;;;;5071623;28;20056;-79
2022/10/18 08:29:04;;;;;;;17.15;8.52;;;;;;;;;;5055325;28;20040;-78
2022/10/18 08:31:50;;;;;;;19.73;8.13;;;;;;;;;;5074162;28;20412;-78
2022/10/18 08:34:16;;;;;;;16.30;8.23;;;;;;;;;;5073050;28;20100;-78
2022/10/18 08:36:45;;;;;;;28.83;8.82;;;;;;;;;;5054237;28;20044;-78
2022/10/18 08:39:11;;;;;;;18.05;8.45;;;;;;;;;;5074190;28;20059;-77
2022/10/18 08:41:38;;;;;;;21.50;9.30;;;;;;;;;;5068855;28;20131;-78
2022/10/18 08:44:04;;;;;;;17.98;8.68;;;;;;;;;;5075358;28;20510;-77
2022/10/18 08:46:34;;;;;;;17.08;8.77;;;;;;;;;;5072030;28;20056;-76
2022/10/18 08:49:01;;;;;;;17.40;8.52;;;;;;;;;;5073017;28;20479;-78
2022/10/18 08:51:34;;;;;;;18.48;7.47;;;;;;;;;;5083315;28;20040;-77
2022/10/18 08:54:10;;;;;;;11.63;7.10;;;;;;;;;;5096878;28;20043;-77
2022/10/18 08:56:38;;;;;;;15.75;7.43;;;;;;;;;;5090842;28;20056;-77
2022/10/18 08:59:08;;;;;;;19.02;7.70;;;;;;;;;;5075820;28;20198;-78
2022/10/18 09:01:37;;;;;;;15.93;7.50;;;;;;;;;;5073483;28;20055;-77
2022/10/18 09:04:22;;;;;;;13.52;7.50;;;;;;;;;;5073509;28;20044;-79
2022/10/18 09:07:00;;;;;;;13.07;7.07;;;;;;;;;;5073569;28;20044;-78
2022/10/18 09:09:46;;;;;;;13.18;6.35;;;;;;;;;;5071553;28;20064;-79
2022/10/18 09:12:16;;;;;;;11.93;6.60;;;;;;;;;;5071827;28;20134;-78
2022/10/18 09:14:48;;;;;;;18.95;6.40;;;;;;;;;;5053160;28;20398;-78
2022/10/18 09:17:14;;;;;;;14.45;6.57;;;;;;;;;;5071161;28;20048;-79
2022/10/18 09:19:54;;;;;;;15.13;6.45;;;;;;;;;;5071247;28;20132;-77
2022/10/18 09:22:39;;;;;;;15.25;6.45;;;;;;;;;;5069374;28;20094;-79
2022/10/18 09:25:15;;;;;;;12.60;6.47;;;;;;;;;;5070566;28;20063;-79
2022/10/18 09:27:55;;;;;;;12.85;7.15;;;;;;;;;;5070718;28;20040;-79
2022/10/18 09:30:25;;;;;;;8.98;3.50;;;;;;;;;;5070107;28;20119;-80
2022/10/18 09:33:01;;;;;;;8.90;3.50;;;;;;;;;;5050752;28;20083;-79
2022/10/18 09:35:27;;;;;;;;;;;;;;;;;;5071201;28;20090;-78
2022/10/18 09:37:58;;;;;;;11.90;7.07;;;;;;;;;;5070986;28;20003;-78
2022/10/18 09:40:26;;;;;;;15.52;7.53;;;;;;;;;;5070752;28;20040;-78
2022/10/18 09:42:53;;;;;;;18.80;8.85;;;;;;;;;;5071438;28;20045;-79
2022/10/18 09:45:19;;;;;;;20.60;11.43;;;;;;;;;;5061466;28;20100;-77
2022/10/18 09:47:49;;;;;;;19.50;11.98;;;;;;;;;;5080362;28;20044;-79
2022/10/18 09:50:35;;;;;;;19.85;11.93;;;;;;;;;;5069196;28;20055;-78
2022/10/18 09:53:20;;;;;;;19.90;11.00;;;;;;;;;;5069873;28;20079;-79
2022/10/18 09:55:56;;;;;;;21.23;12.82;;;;;;;;;;5071130;28;20056;-78
2022/10/18 09:58:22;;;;;;;;;;;;;;;;;;5072009;28;20052;-78
2022/10/18 10:00:48;;;;;;;;;;;;;;;;;;5071878;28;19943;-79
2022/10/18 10:03:15;;;;;;;;;;;;;;;;;;5072532;28;19927;-77
2022/10/18 10:05:41;;;;;;;;;;;;;;;;;;5071178;28;20218;-77
2022/10/18 10:08:07;;;;;;;;;;;;;;;;;;5071003;28;19925;-80
2022/10/18 10:10:33;;;;;;;;;;;;;;;;;;5070400;28;19936;-76
2022/10/18 10:13:06;;;;;;;25.80;12.07;;;;;;;;;;5070986;28;19927;-78
2022/10/18 10:15:35;;;;;;;19.80;12.00;;;;;;;;;;5070460;28;20049;-79
2022/10/18 10:18:14;;;;;;;20.58;12.93;;;;;;;;;;5069788;28;20106;-79
2022/10/18 10:20:43;;;;;;;19.23;12.15;;;;;;;;;;5068583;28;20052;-77
2022/10/18 10:23:12;;;;;;;17.38;11.88;;;;;;;;;;5073651;28;20059;-78
2022/10/18 10:25:39;;;;;;;18.38;11.88;;;;;;;;;;5069115;28;20056;-79
2022/10/18 10:28:12;;;;;;;15.55;11.23;;;;;;;;;;5072865;28;20052;-79
2022/10/18 10:30:38;;;;;;;17.67;11.77;;;;;;;;;;5073373;28;20100;-79
2022/10/18 10:33:26;;;;;;;19.23;11.52;;;;;;;;;;5076000;28;20380;-78
2022/10/18 10:35:57;;;;;;;23.92;11.93;;;;;;;;;;5077681;28;20060;-78
2022/10/18 10:38:24;;;;;;;18.45;12.55;;;;;;;;;;5069278;28;20055;-79
2022/10/18 10:40:51;;;;;;;16.08;11.48;;;;;;;;;;5067801;28;20045;-78
2022/10/18 10:43:21;;;;;;;17.02;11.23;;;;;;;;;;5068587;28;20049;-77
2022/10/18 10:46:17;;;;;;;26.00;15.43;;;;;;;;;;5066756;28;20040;-77
2022/10/18 10:48:51;;;;;;;16.38;11.40;;;;;;;;;;5066312;28;20884;-77
2022/10/18 10:51:38;;;;;;;19.55;12.30;;;;;;;;;;5065837;28;20495;-77
2022/10/18 10:54:11;;;;;;;19.92;12.57;;;;;;;;;;5068487;28;20037;-78
2022/10/18 10:56:50;;;;;;;23.95;12.00;;;;;;;;;;5050030;28;20045;-78
2022/10/18 10:59:19;;;;;;;19.63;12.02;;;;;;;;;;5068811;28;20052;-77
2022/10/18 11:01:48;;;;;;;18.83;11.98;;;;;;;;;;5068971;28;20056;-78
2022/10/18 11:04:23;;;;;;;11.68;6.72;;;;;;;;;;5051242;28;20068;-78
2022/10/18 11:06:59;;;;;;;10.57;7.05;;;;;;;;;;5067900;28;20320;-79
2022/10/18 11:09:29;;;;;;;9.20;5.80;;;;;;;;;;5072462;28;20049;-79
2022/10/18 11:12:00;;;;;;;6.03;4.38;;;;;;;;;;5072027;28;20543;-79
2022/10/18 11:14:29;;;;;;;8.18;3.65;;;;;;;;;;5068754;28;20606;-79
2022/10/18 11:17:06;;;;;;;5.97;4.15;;;;;;;;;;5053376;28;20404;-79
2022/10/18 11:19:46;;;;;;;12.32;5.53;;;;;;;;;;5074385;28;20063;-79
2022/10/18 11:22:15;;;;;;;3.63;2.45;;;;;;;;;;5072675;28;20053;-77
2022/10/18 11:24:41;;;;;;;6.97;4.13;;;;;;;;;;5070880;28;20120;-79
2022/10/18 11:27:16;;;;;;;11.35;5.40;;;;;;;;;;5073702;28;20054;-78
2022/10/18 11:29:45;;;;;;;9.32;4.45;;;;;;;;;;5075845;28;20508;-79
2022/10/18 11:32:11;;;;;;;4.10;2.10;;;;;;;;;;5057506;28;20044;-78
2022/10/18 11:34:44;;;;;;;2.60;1.50;;;;;;;;;;5071281;28;20054;-80
2022/10/18 11:37:29;;;;;;;8.77;3.70;;;;;;;;;;5069998;28;20040;-77
2022/10/18 11:40:04;;;;;;;4.85;2.38;;;;;;;;;;5068837;28;20527;-78
2022/10/18 11:42:50;;;;;;;6.15;2.88;;;;;;;;;;5071698;28;20052;-78
2022/10/18 11:45:28;;;;;;;18.85;6.25;;;;;;;;;;5071308;28;20053;-78
2022/10/18 11:47:58;;;;;;;25.85;8.68;;;;;;;;;;5072440;28;20068;-80
2022/10/18 11:50:47;;;;;;;23.23;7.55;;;;;;;;;;5072245;28;20048;-80
2022/10/18 11:53:17;;;;;;;20.90;7.47;;;;;;;;;;5071746;28;20512;-79
2022/10/18 11:55:52;;;;;;;15.55;5.53;;;;;;;;;;5054549;28;20037;-79
2022/10/18 11:58:25;;;;;;;8.45;3.30;;;;;;;;;;5074948;28;20052;-78
2022/10/18 12:01:00;;;;;;;7.30;2.90;;;;;;;;;;5074923;28;20140;-79
2022/10/18 12:03:26;;;;;;;6.47;2.97;;;;;;;;;;5075507;28;20044;-81
2022/10/18 12:05:54;;;;;;;15.93;5.70;;;;;;;;;;5057148;28;20052;-78
2022/10/18 12:08:24;;;;;;;7.88;2.92;;;;;;;;;;5075590;28;20556;-79
2022/10/18 12:10:52;;;;;;;3.92;1.70;;;;;;;;;;5075411;28;20075;-78
2022/10/18 12:13:49;;;;;;;2.08;1.00;;;;;;;;;;5093878;28;20051;-78
2022/10/18 12:16:18;;;;;;;13.18;6.13;;;;;;;;;;5097852;28;20095;-78
2022/10/18 12:19:07;;;;;;;2.85;1.10;;;;;;;;;;5061685;28;20052;-78
2022/10/18 12:21:34;;;;;;;3.22;1.70;;;;;;;;;;5058364;28;20053;-80
2022/10/18 12:24:04;;;;;;;4.80;1.75;;;;;;;;;;5070422;28;20041;-81
2022/10/18 12:26:31;;;;;;;6.20;2.55;;;;;;;;;;5076799;28;20056;-76
2022/10/18 12:29:16;;;;;;;3.88;1.83;;;;;;;;;;5058948;28;20060;-79
2022/10/18 12:31:56;;;;;;;2.42;0.90;;;;;;;;;;5073906;28;20082;-78
2022/10/18 12:34:22;;;;;;;1.92;0.80;;;;;;;;;;5072661;28;20056;-79
2022/10/18 12:37:01;;;;;;;0.52;0.40;;;;;;;;;;5074846;28;20040;-79
2022/10/18 12:39:36;;;;;;;0.90;0.47;;;;;;;;;;5074642;28;20366;-80
2022/10/18 12:42:25;;;;;;;0.40;0.40;;;;;;;;;;5073097;28;20106;-78
2022/10/18 12:45:02;;;;;;;1.48;0.70;;;;;;;;;;5074089;28;20153;-79
2022/10/18 12:47:29;;;;;;;2.70;0.57;;;;;;;;;;5053416;28;20070;-80
2022/10/18 12:49:58;;;;;;;0.68;0.38;;;;;;;;;;5071004;28;20540;-78
2022/10/18 12:52:27;;;;;;;0.63;0.50;;;;;;;;;;5074349;28;20128;-79
2022/10/18 12:55:00;;;;;;;1.10;0.60;;;;;;;;;;5074593;28;20469;-78
2022/10/18 12:57:46;;;;;;;1.02;0.70;;;;;;;;;;5073687;28;20052;-78
2022/10/18 13:00:28;;;;;;;0.93;0.70;;;;;;;;;;5073607;28;20052;-79
2022/10/18 13:03:20;;;;;;;1.52;0.70;;;;;;;;;;5074239;28;20053;-79
2022/10/18 13:05:47;;;;;;;1.83;1.00;;;;;;;;;;5070651;28;20060;-79
2022/10/18 13:08:27;;;;;;;1.15;1.05;;;;;;;;;;5072962;28;20044;-78
2022/10/18 13:11:08;;;;;;;4.10;2.10;;;;;;;;;;5072584;28;20154;-79
2022/10/18 13:13:38;;;;;;;4.97;1.70;;;;;;;;;;5055891;28;20044;-80
2022/10/18 13:16:13;;;;;;;1.80;1.10;;;;;;;;;;5073598;28;20044;-79
2022/10/18 13:18:45;;;;;;;3.63;1.88;;;;;;;;;;5072671;28;20047;-79
2022/10/18 13:21:18;;;;;;;5.00;2.70;;;;;;;;;;5073439;28;20088;-79
2022/10/18 13:23:56;;;;;;;1.63;1.10;;;;;;;;;;5073885;28;20049;-80
2022/10/18 13:26:30;;;;;;;3.40;1.13;;;;;;;;;;5073308;28;20124;-79
2022/10/18 13:29:15;;;;;;;9.90;4.57;;;;;;;;;;5073604;28;20519;-78
2022/10/18 13:31:45;;;;;;;3.40;1.73;;;;;;;;;;5068436;28;20472;-80
2022/10/18 13:34:16;;;;;;;7.30;2.90;;;;;;;;;;5073119;28;20047;-80
2022/10/18 13:36:43;;;;;;;2.88;1.15;;;;;;;;;;5055382;28;20041;-79
2022/10/18 13:39:17;;;;;;;2.13;0.95;;;;;;;;;;5073203;28;20492;-79
2022/10/18 13:41:44;;;;;;;1.83;0.97;;;;;;;;;;5055461;28;20453;-79
2022/10/18 13:44:22;;;;;;;6.03;1.90;;;;;;;;;;5056226;28;20055;-81
2022/10/18 13:46:48;;;;;;;1.20;0.75;;;;;;;;;;5073050;28;20057;-79
2022/10/18 13:49:28;;;;;;;1.13;0.90;;;;;;;;;;5073158;28;20144;-79
2022/10/18 13:52:12;;;;;;;4.03;2.35;;;;;;;;;;5073478;28;20044;-78
2022/10/18 13:54:42;;;;;;;4.43;0.90;;;;;;;;;;5086789;28;20048;-80
2022/10/18 13:57:11;;;;;;;1.63;1.20;;;;;;;;;;5074817;28;20051;-79
2022/10/18 13:59:38;;;;;;;1.20;1.02;;;;;;;;;;5081205;28;20058;-80
2022/10/18 14:02:33;;;;;;;1.60;1.50;;;;;;;;;;5073822;28;20051;-79
2022/10/18 14:05:35;;;;;;;3.03;0.88;;;;;;;;;;5073873;28;20052;-80
2022/10/18 14:08:03;;;;;;;1.35;0.90;;;;;;;;;;5073283;28;20127;-79
2022/10/18 14:10:41;;;;;;;2.53;1.25;;;;;;;;;;5056312;28;20104;-77
2022/10/18 14:13:35;;;;;;;2.40;1.00;;;;;;;;;;5052805;28;20047;-77
2022/10/18 14:16:08;;;;;;;0.93;0.80;;;;;;;;;;5073939;28;20389;-78
2022/10/18 14:18:36;;;;;;;1.27;1.00;;;;;;;;;;5074428;28;20052;-78
2022/10/18 14:21:09;;;;;;;0.90;0.70;;;;;;;;;;5075216;28;20052;-78
2022/10/18 14:23:46;;;;;;;0.70;0.60;;;;;;;;;;5074083;28;20048;-80
2022/10/18 14:26:14;;;;;;;1.85;0.70;;;;;;;;;;5074590;28;20052;-81
2022/10/18 14:28:40;;;;;;;1.90;0.70;;;;;;;;;;5054847;28;20055;-77
2022/10/18 14:31:24;;;;;;;2.33;0.80;;;;;;;;;;5072579;28;20268;-78
2022/10/18 14:33:53;;;;;;;0.93;0.60;;;;;;;;;;5070579;28;20143;-80
2022/10/18 14:36:24;;;;;;;1.00;0.65;;;;;;;;;;5071919;28;20152;-80
2022/10/18 14:38:55;;;;;;;2.13;0.90;;;;;;;;;;5072455;28;20083;-79
2022/10/18 14:41:23;;;;;;;1.75;0.85;;;;;;;;;;5071684;28;20094;-80
2022/10/18 14:43:50;;;;;;;2.08;0.73;;;;;;;;;;5070448;28;20060;-79
2022/10/18 14:46:18;;;;;;;1.55;0.85;;;;;;;;;;5071272;28;20121;-78
2022/10/18 14:49:11;;;;;;;1.35;1.00;;;;;;;;;;5074506;28;20103;-80
2022/10/18 14:51:39;;;;;;;1.13;0.80;;;;;;;;;;5071413;28;20060;-79